sensor_id;sensor_type;location;lat;lon;timestamp;temperature;humidity
21540;DHT22;10931;52.164;5.518;2023-04-24T00:00:05;20.60;60.50
21540;DHT22;10931;52.164;5.518;2023-04-24T00:02:32;20.60;60.50
21540;DHT22;10931;52.164;5.518;2023-04-24T00:04:58;20.60;60.60
21540;DHT22;10931;52.164;5.518;2023-04-24T00:07:28;20.60;60.50
21540;DHT22;10931;52.164;5.518;2023-04-24T00:09:54;20.60;60.50
21540;DHT22;10931;52.164;5.518;2023-04-24T00:12:20;20.60;60.50
21540;DHT22;10931;52.164;5.518;2023-04-24T00:14:46;20.60;60.50
21540;DHT22;10931;52.164;5.518;2023-04-24T00:17:14;20.60;60.50
21540;DHT22;10931;52.164;5.518;2023-04-24T00:19:39;20.60;60.50
21540;DHT22;10931;52.164;5.518;2023-04-24T00:22:05;20.60;60.50
21540;DHT22;10931;52.164;5.518;2023-04-24T00:24:31;20.60;60.50
21540;DHT22;10931;52.164;5.518;2023-04-24T00:26:57;20.60;60.50
21540;DHT22;10931;52.164;5.518;2023-04-24T00:29:22;20.50;60.40
21540;DHT22;10931;52.164;5.518;2023-04-24T00:31:48;20.50;60.40
21540;DHT22;10931;52.164;5.518;2023-04-24T00:34:14;20.50;60.40
21540;DHT22;10931;52.164;5.518;2023-04-24T00:36:39;20.50;60.40
21540;DHT22;10931;52.164;5.518;2023-04-24T00:39:06;20.50;60.40
21540;DHT22;10931;52.164;5.518;2023-04-24T00:41:34;20.50;60.40
21540;DHT22;10931;52.164;5.518;2023-04-24T00:44:13;20.50;60.40
21540;DHT22;10931;52.164;5.518;2023-04-24T00:46:39;20.50;60.40
21540;DHT22;10931;52.164;5.518;2023-04-24T00:49:05;20.50;61.20
21540;DHT22;10931;52.164;5.518;2023-04-24T00:51:31;20.50;60.40
21540;DHT22;10931;52.164;5.518;2023-04-24T00:53:58;20.50;60.40
21540;DHT22;10931;52.164;5.518;2023-04-24T00:56:27;20.50;60.40
21540;DHT22;10931;52.164;5.518;2023-04-24T00:58:53;20.50;60.40
21540;DHT22;10931;52.164;5.518;2023-04-24T01:01:22;20.50;60.50
21540;DHT22;10931;52.164;5.518;2023-04-24T01:03:50;20.50;60.40
21540;DHT22;10931;52.164;5.518;2023-04-24T01:06:27;20.50;60.40
21540;DHT22;10931;52.164;5.518;2023-04-24T01:08:56;20.40;60.40
21540;DHT22;10931;52.164;5.518;2023-04-24T01:11:22;20.40;60.40
21540;DHT22;10931;52.164;5.518;2023-04-24T01:13:48;20.40;60.40
21540;DHT22;10931;52.164;5.518;2023-04-24T01:16:14;20.40;60.40
21540;DHT22;10931;52.164;5.518;2023-04-24T01:18:43;20.40;60.40
21540;DHT22;10931;52.164;5.518;2023-04-24T01:21:09;20.40;60.30
21540;DHT22;10931;52.164;5.518;2023-04-24T01:23:38;20.40;60.40
21540;DHT22;10931;52.164;5.518;2023-04-24T01:26:17;20.40;60.40
21540;DHT22;10931;52.164;5.518;2023-04-24T01:28:45;20.40;60.40
21540;DHT22;10931;52.164;5.518;2023-04-24T01:31:11;20.40;60.40
21540;DHT22;10931;52.164;5.518;2023-04-24T01:33:37;20.40;60.40
21540;DHT22;10931;52.164;5.518;2023-04-24T01:36:03;20.40;60.30
21540;DHT22;10931;52.164;5.518;2023-04-24T01:38:38;20.40;60.40
21540;DHT22;10931;52.164;5.518;2023-04-24T01:41:03;20.40;60.40
21540;DHT22;10931;52.164;5.518;2023-04-24T01:43:29;20.40;60.40
21540;DHT22;10931;52.164;5.518;2023-04-24T01:45:56;20.30;60.30
21540;DHT22;10931;52.164;5.518;2023-04-24T01:48:22;20.40;60.40
21540;DHT22;10931;52.164;5.518;2023-04-24T01:50:47;20.40;60.40
21540;DHT22;10931;52.164;5.518;2023-04-24T01:53:13;20.30;60.30
21540;DHT22;10931;52.164;5.518;2023-04-24T01:55:40;20.30;60.30
21540;DHT22;10931;52.164;5.518;2023-04-24T01:58:06;20.30;60.30
21540;DHT22;10931;52.164;5.518;2023-04-24T02:00:32;20.40;60.40
21540;DHT22;10931;52.164;5.518;2023-04-24T02:02:59;20.40;60.40
21540;DHT22;10931;52.164;5.518;2023-04-24T02:05:27;20.40;60.40
21540;DHT22;10931;52.164;5.518;2023-04-24T02:07:53;20.30;60.30
21540;DHT22;10931;52.164;5.518;2023-04-24T02:10:19;20.30;60.30
21540;DHT22;10931;52.164;5.518;2023-04-24T02:12:45;20.30;60.30
21540;DHT22;10931;52.164;5.518;2023-04-24T02:15:11;20.30;60.30
21540;DHT22;10931;52.164;5.518;2023-04-24T02:17:37;20.30;60.30
21540;DHT22;10931;52.164;5.518;2023-04-24T02:20:03;20.30;60.30
21540;DHT22;10931;52.164;5.518;2023-04-24T02:22:30;20.30;60.30
21540;DHT22;10931;52.164;5.518;2023-04-24T02:24:55;20.30;60.30
21540;DHT22;10931;52.164;5.518;2023-04-24T02:27:21;20.30;60.30
21540;DHT22;10931;52.164;5.518;2023-04-24T02:29:47;20.30;60.40
21540;DHT22;10931;52.164;5.518;2023-04-24T02:32:12;20.30;60.30
21540;DHT22;10931;52.164;5.518;2023-04-24T02:34:40;20.30;60.30
21540;DHT22;10931;52.164;5.518;2023-04-24T02:37:06;20.30;60.30
21540;DHT22;10931;52.164;5.518;2023-04-24T02:39:32;20.30;60.30
21540;DHT22;10931;52.164;5.518;2023-04-24T02:41:57;20.30;60.30
21540;DHT22;10931;52.164;5.518;2023-04-24T02:44:40;20.20;60.30
21540;DHT22;10931;52.164;5.518;2023-04-24T02:47:06;20.20;60.30
21540;DHT22;10931;52.164;5.518;2023-04-24T02:49:32;20.20;60.30
21540;DHT22;10931;52.164;5.518;2023-04-24T02:52:10;20.20;60.30
21540;DHT22;10931;52.164;5.518;2023-04-24T02:54:36;20.20;60.30
21540;DHT22;10931;52.164;5.518;2023-04-24T02:57:02;20.20;60.30
21540;DHT22;10931;52.164;5.518;2023-04-24T02:59:27;20.20;60.30
21540;DHT22;10931;52.164;5.518;2023-04-24T03:02:16;20.20;60.30
21540;DHT22;10931;52.164;5.518;2023-04-24T03:04:41;20.20;60.30
21540;DHT22;10931;52.164;5.518;2023-04-24T03:07:10;20.20;60.30
21540;DHT22;10931;52.164;5.518;2023-04-24T03:09:36;20.20;60.30
21540;DHT22;10931;52.164;5.518;2023-04-24T03:12:02;20.20;60.30
21540;DHT22;10931;52.164;5.518;2023-04-24T03:14:27;20.20;60.30
21540;DHT22;10931;52.164;5.518;2023-04-24T03:16:56;20.20;60.30
21540;DHT22;10931;52.164;5.518;2023-04-24T03:19:22;20.20;60.30
21540;DHT22;10931;52.164;5.518;2023-04-24T03:21:48;20.10;60.30
21540;DHT22;10931;52.164;5.518;2023-04-24T03:24:13;20.10;60.30
21540;DHT22;10931;52.164;5.518;2023-04-24T03:26:39;20.10;60.30
21540;DHT22;10931;52.164;5.518;2023-04-24T03:29:05;20.10;60.30
21540;DHT22;10931;52.164;5.518;2023-04-24T03:31:30;20.10;60.30
21540;DHT22;10931;52.164;5.518;2023-04-24T03:33:59;20.10;60.30
21540;DHT22;10931;52.164;5.518;2023-04-24T03:36:24;20.10;60.30
21540;DHT22;10931;52.164;5.518;2023-04-24T03:38:51;20.10;60.30
21540;DHT22;10931;52.164;5.518;2023-04-24T03:41:17;20.10;60.30
21540;DHT22;10931;52.164;5.518;2023-04-24T03:43:43;20.10;60.30
21540;DHT22;10931;52.164;5.518;2023-04-24T03:46:08;20.10;60.30
21540;DHT22;10931;52.164;5.518;2023-04-24T03:48:35;20.10;60.30
21540;DHT22;10931;52.164;5.518;2023-04-24T03:51:00;20.10;60.30
21540;DHT22;10931;52.164;5.518;2023-04-24T03:53:26;20.10;60.30
21540;DHT22;10931;52.164;5.518;2023-04-24T03:55:52;20.10;60.30
21540;DHT22;10931;52.164;5.518;2023-04-24T03:58:18;20.10;60.30
21540;DHT22;10931;52.164;5.518;2023-04-24T04:00:44;20.00;60.20
21540;DHT22;10931;52.164;5.518;2023-04-24T04:03:11;20.00;60.20
21540;DHT22;10931;52.164;5.518;2023-04-24T04:05:39;20.00;60.30
21540;DHT22;10931;52.164;5.518;2023-04-24T04:08:06;20.00;60.20
21540;DHT22;10931;52.164;5.518;2023-04-24T04:10:34;20.00;60.20
21540;DHT22;10931;52.164;5.518;2023-04-24T04:12:59;20.00;60.30
21540;DHT22;10931;52.164;5.518;2023-04-24T04:15:25;20.00;60.30
21540;DHT22;10931;52.164;5.518;2023-04-24T04:17:51;20.00;60.20
21540;DHT22;10931;52.164;5.518;2023-04-24T04:20:17;20.00;60.30
21540;DHT22;10931;52.164;5.518;2023-04-24T04:22:45;20.00;60.20
21540;DHT22;10931;52.164;5.518;2023-04-24T04:25:11;20.00;60.30
21540;DHT22;10931;52.164;5.518;2023-04-24T04:27:38;20.00;60.20
21540;DHT22;10931;52.164;5.518;2023-04-24T04:30:05;20.00;60.30
21540;DHT22;10931;52.164;5.518;2023-04-24T04:32:31;20.00;60.30
21540;DHT22;10931;52.164;5.518;2023-04-24T04:34:59;19.90;60.20
21540;DHT22;10931;52.164;5.518;2023-04-24T04:37:29;19.90;60.20
21540;DHT22;10931;52.164;5.518;2023-04-24T04:39:55;20.00;60.30
21540;DHT22;10931;52.164;5.518;2023-04-24T04:42:20;20.00;60.30
21540;DHT22;10931;52.164;5.518;2023-04-24T04:44:46;19.90;60.10
21540;DHT22;10931;52.164;5.518;2023-04-24T04:47:17;19.90;60.20
21540;DHT22;10931;52.164;5.518;2023-04-24T04:49:46;19.90;60.20
21540;DHT22;10931;52.164;5.518;2023-04-24T04:52:12;19.90;60.30
21540;DHT22;10931;52.164;5.518;2023-04-24T04:54:37;19.90;60.20
21540;DHT22;10931;52.164;5.518;2023-04-24T04:57:03;19.90;60.20
21540;DHT22;10931;52.164;5.518;2023-04-24T04:59:29;19.90;60.20
21540;DHT22;10931;52.164;5.518;2023-04-24T05:01:54;19.90;60.20
21540;DHT22;10931;52.164;5.518;2023-04-24T05:04:20;19.90;60.20
21540;DHT22;10931;52.164;5.518;2023-04-24T05:06:46;19.90;60.20
21540;DHT22;10931;52.164;5.518;2023-04-24T05:09:12;19.90;60.20
21540;DHT22;10931;52.164;5.518;2023-04-24T05:11:38;19.90;60.30
21540;DHT22;10931;52.164;5.518;2023-04-24T05:14:04;19.90;60.30
21540;DHT22;10931;52.164;5.518;2023-04-24T05:16:29;19.90;60.20
21540;DHT22;10931;52.164;5.518;2023-04-24T05:18:56;19.80;60.10
21540;DHT22;10931;52.164;5.518;2023-04-24T05:21:23;19.90;60.20
21540;DHT22;10931;52.164;5.518;2023-04-24T05:23:48;19.80;60.20
21540;DHT22;10931;52.164;5.518;2023-04-24T05:26:14;19.90;60.30
21540;DHT22;10931;52.164;5.518;2023-04-24T05:28:40;19.90;60.30
21540;DHT22;10931;52.164;5.518;2023-04-24T05:31:06;19.80;60.20
21540;DHT22;10931;52.164;5.518;2023-04-24T05:33:32;19.80;60.10
21540;DHT22;10931;52.164;5.518;2023-04-24T05:35:57;19.80;60.10
21540;DHT22;10931;52.164;5.518;2023-04-24T05:38:23;19.80;60.20
21540;DHT22;10931;52.164;5.518;2023-04-24T05:40:49;19.80;60.10
21540;DHT22;10931;52.164;5.518;2023-04-24T05:43:14;19.80;60.10
21540;DHT22;10931;52.164;5.518;2023-04-24T05:45:40;19.80;60.20
21540;DHT22;10931;52.164;5.518;2023-04-24T05:48:06;19.80;60.20
21540;DHT22;10931;52.164;5.518;2023-04-24T05:50:32;19.80;60.20
21540;DHT22;10931;52.164;5.518;2023-04-24T05:52:57;19.80;60.20
21540;DHT22;10931;52.164;5.518;2023-04-24T05:55:24;19.80;60.20
21540;DHT22;10931;52.164;5.518;2023-04-24T05:57:51;19.80;60.20
21540;DHT22;10931;52.164;5.518;2023-04-24T06:00:17;19.80;60.20
21540;DHT22;10931;52.164;5.518;2023-04-24T06:02:45;19.80;60.20
21540;DHT22;10931;52.164;5.518;2023-04-24T06:05:11;19.80;60.20
21540;DHT22;10931;52.164;5.518;2023-04-24T06:07:37;19.80;60.20
21540;DHT22;10931;52.164;5.518;2023-04-24T06:10:03;19.80;60.20
21540;DHT22;10931;52.164;5.518;2023-04-24T06:12:29;19.80;60.20
21540;DHT22;10931;52.164;5.518;2023-04-24T06:14:55;19.70;60.10
21540;DHT22;10931;52.164;5.518;2023-04-24T06:17:23;19.70;60.10
21540;DHT22;10931;52.164;5.518;2023-04-24T06:19:48;19.80;60.30
21540;DHT22;10931;52.164;5.518;2023-04-24T06:22:14;19.80;60.20
21540;DHT22;10931;52.164;5.518;2023-04-24T06:24:40;19.80;60.30
21540;DHT22;10931;52.164;5.518;2023-04-24T06:27:08;19.70;60.10
21540;DHT22;10931;52.164;5.518;2023-04-24T06:29:36;19.70;60.20
21540;DHT22;10931;52.164;5.518;2023-04-24T06:32:01;19.70;60.20
21540;DHT22;10931;52.164;5.518;2023-04-24T06:34:27;19.70;60.10
21540;DHT22;10931;52.164;5.518;2023-04-24T06:36:53;19.70;60.10
21540;DHT22;10931;52.164;5.518;2023-04-24T06:39:20;19.70;60.10
21540;DHT22;10931;52.164;5.518;2023-04-24T06:41:48;19.70;60.20
21540;DHT22;10931;52.164;5.518;2023-04-24T06:44:16;19.70;60.10
21540;DHT22;10931;52.164;5.518;2023-04-24T06:46:42;19.70;60.20
21540;DHT22;10931;52.164;5.518;2023-04-24T06:49:07;19.70;60.10
21540;DHT22;10931;52.164;5.518;2023-04-24T06:51:33;19.70;60.10
21540;DHT22;10931;52.164;5.518;2023-04-24T06:53:59;19.70;60.10
21540;DHT22;10931;52.164;5.518;2023-04-24T06:56:26;19.60;60.10
21540;DHT22;10931;52.164;5.518;2023-04-24T06:58:51;19.70;60.20
21540;DHT22;10931;52.164;5.518;2023-04-24T07:01:17;19.70;60.20
21540;DHT22;10931;52.164;5.518;2023-04-24T07:03:46;19.70;60.20
21540;DHT22;10931;52.164;5.518;2023-04-24T07:06:11;19.60;60.10
21540;DHT22;10931;52.164;5.518;2023-04-24T07:08:38;19.70;60.30
21540;DHT22;10931;52.164;5.518;2023-04-24T07:11:06;19.70;60.30
21540;DHT22;10931;52.164;5.518;2023-04-24T07:13:32;19.60;60.10
21540;DHT22;10931;52.164;5.518;2023-04-24T07:15:57;19.70;60.20
21540;DHT22;10931;52.164;5.518;2023-04-24T07:18:23;19.60;60.20
21540;DHT22;10931;52.164;5.518;2023-04-24T07:20:49;19.60;60.20
21540;DHT22;10931;52.164;5.518;2023-04-24T07:23:18;19.60;60.20
21540;DHT22;10931;52.164;5.518;2023-04-24T07:25:44;19.60;60.20
21540;DHT22;10931;52.164;5.518;2023-04-24T07:28:09;19.60;60.20
21540;DHT22;10931;52.164;5.518;2023-04-24T07:30:35;19.60;60.20
21540;DHT22;10931;52.164;5.518;2023-04-24T07:33:01;19.60;60.20
21540;DHT22;10931;52.164;5.518;2023-04-24T07:35:27;19.60;60.20
21540;DHT22;10931;52.164;5.518;2023-04-24T07:37:53;19.60;60.30
21540;DHT22;10931;52.164;5.518;2023-04-24T07:40:19;19.60;60.20
21540;DHT22;10931;52.164;5.518;2023-04-24T07:42:45;19.60;60.20
21540;DHT22;10931;52.164;5.518;2023-04-24T07:45:14;19.60;60.20
21540;DHT22;10931;52.164;5.518;2023-04-24T07:47:41;19.60;60.20
21540;DHT22;10931;52.164;5.518;2023-04-24T07:50:09;19.60;60.30
21540;DHT22;10931;52.164;5.518;2023-04-24T07:52:35;19.60;60.30
21540;DHT22;10931;52.164;5.518;2023-04-24T07:55:01;19.50;60.20
21540;DHT22;10931;52.164;5.518;2023-04-24T07:57:27;19.50;60.20
21540;DHT22;10931;52.164;5.518;2023-04-24T07:59:53;19.50;60.20
21540;DHT22;10931;52.164;5.518;2023-04-24T08:02:19;19.50;60.10
21540;DHT22;10931;52.164;5.518;2023-04-24T08:04:47;19.50;60.20
21540;DHT22;10931;52.164;5.518;2023-04-24T08:07:12;19.50;60.30
21540;DHT22;10931;52.164;5.518;2023-04-24T08:09:38;19.50;60.20
21540;DHT22;10931;52.164;5.518;2023-04-24T08:12:04;19.50;60.20
21540;DHT22;10931;52.164;5.518;2023-04-24T08:14:30;19.50;60.20
21540;DHT22;10931;52.164;5.518;2023-04-24T08:16:55;19.50;60.20
21540;DHT22;10931;52.164;5.518;2023-04-24T08:19:21;19.50;60.20
21540;DHT22;10931;52.164;5.518;2023-04-24T08:21:47;19.50;60.30
21540;DHT22;10931;52.164;5.518;2023-04-24T08:24:13;19.50;60.20
21540;DHT22;10931;52.164;5.518;2023-04-24T08:26:39;19.50;60.30
21540;DHT22;10931;52.164;5.518;2023-04-24T08:29:05;19.50;60.30
21540;DHT22;10931;52.164;5.518;2023-04-24T08:31:32;19.50;60.30
21540;DHT22;10931;52.164;5.518;2023-04-24T08:33:57;19.50;60.30
21540;DHT22;10931;52.164;5.518;2023-04-24T08:36:26;19.50;60.30
21540;DHT22;10931;52.164;5.518;2023-04-24T08:38:52;19.50;60.30
21540;DHT22;10931;52.164;5.518;2023-04-24T08:41:18;19.50;60.30
21540;DHT22;10931;52.164;5.518;2023-04-24T08:43:47;19.50;60.30
21540;DHT22;10931;52.164;5.518;2023-04-24T08:46:15;19.50;60.30
21540;DHT22;10931;52.164;5.518;2023-04-24T08:48:42;19.50;60.30
21540;DHT22;10931;52.164;5.518;2023-04-24T08:51:44;19.50;60.30
21540;DHT22;10931;52.164;5.518;2023-04-24T08:54:12;19.50;60.30
21540;DHT22;10931;52.164;5.518;2023-04-24T08:56:38;19.50;60.30
21540;DHT22;10931;52.164;5.518;2023-04-24T08:59:14;19.50;61.00
21540;DHT22;10931;52.164;5.518;2023-04-24T09:01:41;19.50;60.30
21540;DHT22;10931;52.164;5.518;2023-04-24T09:04:08;19.50;60.30
21540;DHT22;10931;52.164;5.518;2023-04-24T09:06:38;19.40;60.20
21540;DHT22;10931;52.164;5.518;2023-04-24T09:09:04;19.40;60.20
21540;DHT22;10931;52.164;5.518;2023-04-24T09:11:36;19.40;61.10
21540;DHT22;10931;52.164;5.518;2023-04-24T09:14:02;19.50;60.30
21540;DHT22;10931;52.164;5.518;2023-04-24T09:16:29;19.50;60.30
21540;DHT22;10931;52.164;5.518;2023-04-24T09:18:55;19.50;60.30
21540;DHT22;10931;52.164;5.518;2023-04-24T09:21:22;19.40;60.20
21540;DHT22;10931;52.164;5.518;2023-04-24T09:23:58;19.40;60.20
21540;DHT22;10931;52.164;5.518;2023-04-24T09:26:31;19.40;60.30
21540;DHT22;10931;52.164;5.518;2023-04-24T09:29:07;19.40;60.30
21540;DHT22;10931;52.164;5.518;2023-04-24T09:31:33;19.40;60.30
21540;DHT22;10931;52.164;5.518;2023-04-24T09:34:03;19.40;60.20
21540;DHT22;10931;52.164;5.518;2023-04-24T09:36:35;19.40;60.30
21540;DHT22;10931;52.164;5.518;2023-04-24T09:39:06;19.40;61.00
21540;DHT22;10931;52.164;5.518;2023-04-24T09:46:42;19.40;60.20
21540;DHT22;10931;52.164;5.518;2023-04-24T09:49:25;19.40;60.20
21540;DHT22;10931;52.164;5.518;2023-04-24T09:51:52;19.40;60.20
21540;DHT22;10931;52.164;5.518;2023-04-24T09:54:19;19.40;60.20
21540;DHT22;10931;52.164;5.518;2023-04-24T09:56:49;19.40;60.10
21540;DHT22;10931;52.164;5.518;2023-04-24T09:59:17;19.40;60.10
21540;DHT22;10931;52.164;5.518;2023-04-24T10:01:43;19.40;60.10
21540;DHT22;10931;52.164;5.518;2023-04-24T10:04:18;19.40;60.10
21540;DHT22;10931;52.164;5.518;2023-04-24T10:06:44;19.40;60.30
21540;DHT22;10931;52.164;5.518;2023-04-24T10:09:10;19.40;60.10
21540;DHT22;10931;52.164;5.518;2023-04-24T10:11:43;19.40;60.10
21540;DHT22;10931;52.164;5.518;2023-04-24T10:14:29;19.40;60.10
21540;DHT22;10931;52.164;5.518;2023-04-24T10:16:55;19.40;60.10
21540;DHT22;10931;52.164;5.518;2023-04-24T10:19:26;19.40;60.10
21540;DHT22;10931;52.164;5.518;2023-04-24T10:21:52;19.40;60.10
21540;DHT22;10931;52.164;5.518;2023-04-24T10:24:19;19.40;60.10
21540;DHT22;10931;52.164;5.518;2023-04-24T10:26:48;19.40;60.10
21540;DHT22;10931;52.164;5.518;2023-04-24T10:29:18;19.40;60.10
21540;DHT22;10931;52.164;5.518;2023-04-24T10:31:44;19.40;60.10
21540;DHT22;10931;52.164;5.518;2023-04-24T10:34:17;19.40;60.10
21540;DHT22;10931;52.164;5.518;2023-04-24T10:36:50;19.40;60.10
21540;DHT22;10931;52.164;5.518;2023-04-24T10:39:16;19.40;60.10
21540;DHT22;10931;52.164;5.518;2023-04-24T10:41:45;19.40;60.10
21540;DHT22;10931;52.164;5.518;2023-04-24T10:44:15;19.40;60.00
21540;DHT22;10931;52.164;5.518;2023-04-24T10:46:46;19.40;60.10
21540;DHT22;10931;52.164;5.518;2023-04-24T10:49:13;19.40;60.00
21540;DHT22;10931;52.164;5.518;2023-04-24T10:51:50;19.40;60.10
21540;DHT22;10931;52.164;5.518;2023-04-24T10:54:23;19.40;60.00
21540;DHT22;10931;52.164;5.518;2023-04-24T10:56:51;19.40;60.00
21540;DHT22;10931;52.164;5.518;2023-04-24T10:59:42;19.40;60.00
21540;DHT22;10931;52.164;5.518;2023-04-24T11:02:08;19.40;60.00
21540;DHT22;10931;52.164;5.518;2023-04-24T11:04:36;19.40;60.00
21540;DHT22;10931;52.164;5.518;2023-04-24T11:07:05;19.40;60.00
21540;DHT22;10931;52.164;5.518;2023-04-24T11:09:31;19.40;60.00
21540;DHT22;10931;52.164;5.518;2023-04-24T11:12:08;19.40;60.00
21540;DHT22;10931;52.164;5.518;2023-04-24T11:14:59;19.50;60.10
21540;DHT22;10931;52.164;5.518;2023-04-24T11:17:34;19.40;60.00
21540;DHT22;10931;52.164;5.518;2023-04-24T11:20:08;19.40;60.10
21540;DHT22;10931;52.164;5.518;2023-04-24T11:22:36;19.40;60.00
21540;DHT22;10931;52.164;5.518;2023-04-24T11:25:05;19.40;60.00
21540;DHT22;10931;52.164;5.518;2023-04-24T11:27:42;19.40;60.00
21540;DHT22;10931;52.164;5.518;2023-04-24T11:30:10;19.50;60.10
21540;DHT22;10931;52.164;5.518;2023-04-24T11:32:41;19.40;60.00
21540;DHT22;10931;52.164;5.518;2023-04-24T11:35:14;19.40;60.00
21540;DHT22;10931;52.164;5.518;2023-04-24T11:37:47;19.50;60.10
21540;DHT22;10931;52.164;5.518;2023-04-24T11:40:15;19.50;60.10
21540;DHT22;10931;52.164;5.518;2023-04-24T11:42:47;19.40;60.00
21540;DHT22;10931;52.164;5.518;2023-04-24T11:45:22;19.50;60.10
21540;DHT22;10931;52.164;5.518;2023-04-24T11:47:48;19.50;60.00
21540;DHT22;10931;52.164;5.518;2023-04-24T11:50:15;19.50;60.00
21540;DHT22;10931;52.164;5.518;2023-04-24T11:52:44;19.40;60.00
21540;DHT22;10931;52.164;5.518;2023-04-24T11:57:53;19.50;60.10
21540;DHT22;10931;52.164;5.518;2023-04-24T12:00:20;19.50;60.10
21540;DHT22;10931;52.164;5.518;2023-04-24T12:02:47;19.50;60.00
21540;DHT22;10931;52.164;5.518;2023-04-24T12:05:24;19.50;60.00
21540;DHT22;10931;52.164;5.518;2023-04-24T12:07:50;19.50;60.00
21540;DHT22;10931;52.164;5.518;2023-04-24T12:10:21;19.50;60.00
21540;DHT22;10931;52.164;5.518;2023-04-24T12:12:47;19.50;60.00
21540;DHT22;10931;52.164;5.518;2023-04-24T12:15:17;19.50;60.00
21540;DHT22;10931;52.164;5.518;2023-04-24T12:17:43;19.50;60.00
21540;DHT22;10931;52.164;5.518;2023-04-24T12:20:10;19.50;60.00
21540;DHT22;10931;52.164;5.518;2023-04-24T12:22:51;19.50;60.00
21540;DHT22;10931;52.164;5.518;2023-04-24T12:25:20;19.50;60.00
21540;DHT22;10931;52.164;5.518;2023-04-24T12:27:53;19.50;60.00
21540;DHT22;10931;52.164;5.518;2023-04-24T12:30:19;19.50;60.00
21540;DHT22;10931;52.164;5.518;2023-04-24T12:32:48;19.50;59.90
21540;DHT22;10931;52.164;5.518;2023-04-24T12:35:19;19.50;60.00
21540;DHT22;10931;52.164;5.518;2023-04-24T12:37:45;19.50;60.00
21540;DHT22;10931;52.164;5.518;2023-04-24T12:40:12;19.50;60.00
21540;DHT22;10931;52.164;5.518;2023-04-24T12:42:46;19.60;60.00
21540;DHT22;10931;52.164;5.518;2023-04-24T12:45:12;19.60;60.00
21540;DHT22;10931;52.164;5.518;2023-04-24T12:47:39;19.60;60.00
21540;DHT22;10931;52.164;5.518;2023-04-24T12:50:07;19.50;59.90
21540;DHT22;10931;52.164;5.518;2023-04-24T12:52:33;19.60;60.00
21540;DHT22;10931;52.164;5.518;2023-04-24T12:55:00;19.60;60.00
21540;DHT22;10931;52.164;5.518;2023-04-24T12:57:29;19.60;60.00
21540;DHT22;10931;52.164;5.518;2023-04-24T12:59:56;19.60;60.00
21540;DHT22;10931;52.164;5.518;2023-04-24T13:02:23;19.60;60.00
21540;DHT22;10931;52.164;5.518;2023-04-24T13:04:49;19.60;60.00
21540;DHT22;10931;52.164;5.518;2023-04-24T13:07:15;19.60;60.00
21540;DHT22;10931;52.164;5.518;2023-04-24T13:09:50;19.60;60.00
21540;DHT22;10931;52.164;5.518;2023-04-24T13:12:16;19.60;60.00
21540;DHT22;10931;52.164;5.518;2023-04-24T13:14:42;19.60;60.00
21540;DHT22;10931;52.164;5.518;2023-04-24T13:17:08;19.60;59.90
21540;DHT22;10931;52.164;5.518;2023-04-24T13:19:39;19.60;59.90
21540;DHT22;10931;52.164;5.518;2023-04-24T13:22:17;19.60;60.70
21540;DHT22;10931;52.164;5.518;2023-04-24T13:24:49;19.60;59.90
21540;DHT22;10931;52.164;5.518;2023-04-24T13:27:15;19.60;59.90
21540;DHT22;10931;52.164;5.518;2023-04-24T13:29:41;19.70;60.00
21540;DHT22;10931;52.164;5.518;2023-04-24T13:32:08;19.60;59.90
21540;DHT22;10931;52.164;5.518;2023-04-24T13:34:33;19.70;60.00
21540;DHT22;10931;52.164;5.518;2023-04-24T13:37:00;19.60;59.90
21540;DHT22;10931;52.164;5.518;2023-04-24T13:39:26;19.70;60.00
21540;DHT22;10931;52.164;5.518;2023-04-24T13:41:52;19.70;60.00
21540;DHT22;10931;52.164;5.518;2023-04-24T13:44:20;19.70;60.80
21540;DHT22;10931;52.164;5.518;2023-04-24T13:46:49;19.70;60.00
21540;DHT22;10931;52.164;5.518;2023-04-24T13:49:24;19.70;60.00
21540;DHT22;10931;52.164;5.518;2023-04-24T13:51:56;19.70;60.00
21540;DHT22;10931;52.164;5.518;2023-04-24T13:54:22;19.70;60.00
21540;DHT22;10931;52.164;5.518;2023-04-24T13:56:51;19.70;60.00
21540;DHT22;10931;52.164;5.518;2023-04-24T13:59:17;19.70;60.00
21540;DHT22;10931;52.164;5.518;2023-04-24T14:01:42;19.70;60.00
21540;DHT22;10931;52.164;5.518;2023-04-24T14:04:10;19.70;60.00
21540;DHT22;10931;52.164;5.518;2023-04-24T14:06:36;19.70;60.00
21540;DHT22;10931;52.164;5.518;2023-04-24T14:09:02;19.70;60.00
21540;DHT22;10931;52.164;5.518;2023-04-24T14:12:03;19.70;60.00
21540;DHT22;10931;52.164;5.518;2023-04-24T14:14:57;19.70;59.90
21540;DHT22;10931;52.164;5.518;2023-04-24T14:17:44;19.80;60.00
21540;DHT22;10931;52.164;5.518;2023-04-24T14:24:02;19.80;59.90
21540;DHT22;10931;52.164;5.518;2023-04-24T14:26:41;19.80;60.00
21540;DHT22;10931;52.164;5.518;2023-04-24T14:29:10;19.80;59.90
21540;DHT22;10931;52.164;5.518;2023-04-24T14:31:51;19.80;59.90
21540;DHT22;10931;52.164;5.518;2023-04-24T14:34:20;19.80;59.90
21540;DHT22;10931;52.164;5.518;2023-04-24T14:36:48;19.80;59.90
21540;DHT22;10931;52.164;5.518;2023-04-24T14:39:14;19.90;60.00
21540;DHT22;10931;52.164;5.518;2023-04-24T14:41:42;19.90;59.90
21540;DHT22;10931;52.164;5.518;2023-04-24T14:44:10;19.80;59.90
21540;DHT22;10931;52.164;5.518;2023-04-24T14:46:38;19.80;59.90
21540;DHT22;10931;52.164;5.518;2023-04-24T14:49:07;19.90;59.90
21540;DHT22;10931;52.164;5.518;2023-04-24T14:51:35;19.90;59.90
21540;DHT22;10931;52.164;5.518;2023-04-24T14:54:01;19.90;59.90
21540;DHT22;10931;52.164;5.518;2023-04-24T14:56:27;19.90;59.90
21540;DHT22;10931;52.164;5.518;2023-04-24T14:58:53;19.90;59.90
21540;DHT22;10931;52.164;5.518;2023-04-24T15:01:20;19.80;59.80
21540;DHT22;10931;52.164;5.518;2023-04-24T15:03:49;19.80;59.80
21540;DHT22;10931;52.164;5.518;2023-04-24T15:06:18;19.90;59.90
21540;DHT22;10931;52.164;5.518;2023-04-24T15:08:44;19.90;59.80
21540;DHT22;10931;52.164;5.518;2023-04-24T15:11:10;19.90;59.90
21540;DHT22;10931;52.164;5.518;2023-04-24T15:13:36;19.90;59.80
21540;DHT22;10931;52.164;5.518;2023-04-24T15:16:02;19.90;59.80
21540;DHT22;10931;52.164;5.518;2023-04-24T15:18:30;19.90;59.80
21540;DHT22;10931;52.164;5.518;2023-04-24T15:20:58;19.90;59.80
21540;DHT22;10931;52.164;5.518;2023-04-24T15:23:24;19.90;59.80
21540;DHT22;10931;52.164;5.518;2023-04-24T15:25:50;19.90;59.80
21540;DHT22;10931;52.164;5.518;2023-04-24T15:28:19;19.90;59.80
21540;DHT22;10931;52.164;5.518;2023-04-24T15:30:47;20.00;59.80
21540;DHT22;10931;52.164;5.518;2023-04-24T15:33:22;20.00;59.80
21540;DHT22;10931;52.164;5.518;2023-04-24T15:35:48;20.00;59.80
21540;DHT22;10931;52.164;5.518;2023-04-24T15:38:14;20.00;59.80
21540;DHT22;10931;52.164;5.518;2023-04-24T15:40:39;20.00;59.80
21540;DHT22;10931;52.164;5.518;2023-04-24T15:43:05;20.10;59.80
21540;DHT22;10931;52.164;5.518;2023-04-24T15:45:32;20.00;59.70